Contact Us:
Email: info@sawbill.com
Phone: (218)663-7150
Fax: (218)663-7980
Mail: 4620 Sawbill Trail
Box 2129
Tofte, MN 55615


Powered by
Movable Type 3.15
 
Sawbill Weather History Archives: November 2013
Current Sawbill Weather History | « October 2013 | December 2013 »


Date

High
Temperature

Low
Temperature

Barometric
Pressure

Relative
Humidity 7AM

9 AM
Temperature

Moisture

Snow

11/30/13 26 23 30.12 79% 23 0
11/29/13 24 2 30.04 72% 24 Trace Trace
11/28/13 19 -2 30.36 66% 2 .05" .5"
11/27/13 17 9 30.14 68% 13 .19" 4"
11/26/13 11 6 30.20 63% 9 Trace Trace
11/25/13 32 6 30.04 63% 6 .13" 2"
11/24/13 31 6 29.68 69% 30 Trace Trace
11/23/13 8 1 30.30 59% 6 0
11/22/13 21 1 30.44 59% 2 .05" .5"
11/21/13 33 12 30.22 54% 12 Trace Trace
11/20/13 40 33 30.04 84% 33 Trace Trace
11/19/13 38 19 30.00 43% 38 0
11/18/13 22 17 30.15 78% 19 Trace Trace
11/17/13 40 20 29.92 70% 21 .12" .5"
11/16/13 41 37 29.58 95% 38 .09"
11/15/13 41 33 29.74 98% 37 .07"
11/14/13 35 31 29.86 89% 34 Trace Trace
11/13/13 39 18 29.85 75% 33 0
11/12/13 23 12 29.98 75% 18 0
11/11/13 17 9 30.38 61% 11 Trace Trace
11/10/13 33 13 30.16 64% 13 .07" .5"
11/9/13 34 29 30.10 76% 33 .01" 1"
11/8/13 33 28 29.78 93% 33 .26" 2.5"
11/7/13 35 20 30.00 73% 28 Trace Trace
11/6/13 29 27 30.02 79% 29 Trace Trace
11/5/13 36 28 30.00 68% 28 0
11/4/13 40 29 30.10 68% 30 .27"
11/3/13 40 33 30.00 98% 38 .1"
11/2/13 38 31 30.10 92% 33 0
11/1/13 38 33 29.98 78% 34 .03" Trace
 


Home I Trip Planning I Rentals and Outfitting I Reservations I Campgrounds I Sawbill Store I Sawbill News I Contact

© 1997 - 2017, Sawbill Canoe Outfitters, Inc. I Privacy Policy